createdAt,value
2023-01-25T00:02:51.873Z,19.90
2023-01-25T00:22:51.577Z,27.80
2023-01-25T00:42:51.326Z,22.90
2023-01-25T01:02:51.024Z,20.90
2023-01-25T01:22:50.770Z,17.80
2023-01-25T01:42:50.493Z,17.50
2023-01-25T02:02:50.363Z,21.00
2023-01-25T02:22:49.909Z,19.40
2023-01-25T02:42:49.629Z,17.30
2023-01-25T03:02:49.401Z,13.30
2023-01-25T03:22:49.067Z,16.60
2023-01-25T03:42:48.782Z,16.90
2023-01-25T04:02:48.539Z,20.80
2023-01-25T04:22:48.250Z,22.10
2023-01-25T04:42:47.977Z,24.40
2023-01-25T05:02:48.073Z,22.30
2023-01-25T05:22:47.452Z,20.70
2023-01-25T05:42:47.189Z,22.80
2023-01-25T06:02:47.058Z,26.60
2023-01-25T06:22:46.613Z,32.90
2023-01-25T06:42:46.337Z,27.00
2023-01-25T07:02:46.121Z,27.90
2023-01-25T07:22:45.800Z,31.50
2023-01-25T07:42:45.521Z,32.60
2023-01-25T08:02:45.272Z,28.10
2023-01-25T08:22:44.967Z,28.20
2023-01-25T08:42:44.710Z,32.30
2023-01-25T09:02:44.431Z,24.20
2023-01-25T09:22:44.137Z,27.70
2023-01-25T09:42:43.890Z,30.30
2023-01-25T10:02:43.679Z,21.30
2023-01-25T10:22:43.308Z,26.50
2023-01-25T10:42:43.035Z,31.80
2023-01-25T11:02:42.783Z,31.10
2023-01-25T11:22:42.495Z,30.90
2023-01-25T11:42:42.227Z,34.30
2023-01-25T12:02:41.978Z,34.10
2023-01-25T12:22:41.665Z,18.50
2023-01-25T12:42:41.386Z,33.00
2023-01-25T13:02:41.099Z,36.50
2023-01-25T13:22:42.743Z,30.70
2023-01-25T13:42:40.550Z,14.50
2023-01-25T14:02:40.280Z,25.90
2023-01-25T14:22:40.012Z,30.90
2023-01-25T14:42:39.745Z,44.30
2023-01-25T15:02:39.586Z,36.10
2023-01-25T15:22:39.234Z,38.70
2023-01-25T15:42:38.933Z,41.20
2023-01-25T16:02:38.739Z,53.20
2023-01-25T16:22:38.399Z,54.00
2023-01-25T16:42:38.161Z,33.50
2023-01-25T17:02:40.067Z,28.10
2023-01-25T17:22:37.623Z,35.60
2023-01-25T17:42:37.382Z,36.60
2023-01-25T18:02:37.189Z,35.30
2023-01-25T18:22:36.855Z,38.00
2023-01-25T18:42:36.567Z,40.40
2023-01-25T19:02:36.363Z,50.30
2023-01-25T19:22:36.043Z,37.30
2023-01-25T19:42:35.793Z,45.50
2023-01-25T20:02:35.639Z,60.30
2023-01-25T20:22:35.290Z,48.00
2023-01-25T20:42:35.037Z,42.70
2023-01-25T21:02:34.806Z,41.60
2023-01-25T21:22:34.631Z,59.80
2023-01-25T21:42:34.283Z,30.70
2023-01-25T22:02:34.091Z,41.00
2023-01-25T22:22:33.779Z,51.70
2023-01-25T22:42:33.492Z,57.70
2023-01-25T23:02:33.226Z,72.60
2023-01-25T23:22:32.993Z,57.20
2023-01-25T23:42:32.772Z,44.30
